KMDW

Chicago Midway International Airport

Chicago, Illinois, USA
METAR KMDW 181553Z 24012KT 1 1/2SM -DZ BR OVC006 07/06 A2993 RMK AO2 RAE48DZB48 SLP142 P0001 T00720061
Observed Flight Rules
Dec-18 @ 15:53 UTC (32 minutes ago) Instrument Flight Rules
Wind Visibility Clouds Conditions
240° at 12 knots 1 1/2 miles
  • Overcast at 600' AGL
  • Light Drizzle
  • Mist
Temperatures Readings Precipitation
Current 7°C / 45°F
Dewpoint 6°C / 43°F
Humidity 93%
Altimeter 29.93" Hg
Pressure 1014.2 hPa
Elevation 188
Current Rain 0.01
METAR KMDW 181553Z 24012KT 1 1/2SM -DZ BR OVC006 07/06 A2993 RMK AO2 RAE48DZB48 SLP142 P0001 T00720061
Observed Flight Rules
Dec-18 @ 15:53 UTC
(32 minutes ago)
IFR
Wind Visibility
240° at 12 knots 1 1/2 miles
Clouds
  • Overcast at 600' AGL
Conditions
  • Light Drizzle
  • Mist
Temperature Dewpoint
7°C / 45°F 6°C / 43°F
Humidity Altimeter Pressure
93% 29.93" Hg 1014.2 hPa
Current Rain
0.01